createdAt,value
2018-11-21T00:00:20.104Z,86.40
2018-11-21T00:02:49.942Z,86.10
2018-11-21T00:05:18.473Z,86.10
2018-11-21T00:07:47.332Z,85.80
2018-11-21T00:10:15.808Z,85.40
2018-11-21T00:12:48.316Z,85.30
2018-11-21T00:15:16.821Z,84.80
2018-11-21T00:17:45.412Z,84.60
2018-11-21T00:20:13.947Z,84.70
2018-11-21T00:22:42.473Z,84.80
2018-11-21T00:25:11.052Z,85.00
2018-11-21T00:27:39.694Z,85.30
2018-11-21T00:30:10.216Z,85.50
2018-11-21T00:32:38.695Z,85.50
2018-11-21T00:35:08.510Z,85.40
2018-11-21T00:37:37.035Z,85.10
2018-11-21T00:40:08.851Z,85.00
2018-11-21T00:42:38.128Z,84.90
2018-11-21T00:45:06.769Z,85.00
2018-11-21T00:47:35.318Z,84.90
2018-11-21T00:50:03.879Z,85.00
2018-11-21T00:52:33.591Z,85.10
2018-11-21T00:55:03.137Z,85.20
2018-11-21T00:57:31.755Z,85.20
2018-11-21T01:00:00.319Z,85.00
2018-11-21T01:02:28.826Z,85.20
2018-11-21T01:04:57.619Z,85.20
2018-11-21T01:07:26.355Z,85.80
2018-11-21T01:09:54.860Z,85.00
2018-11-21T01:12:23.384Z,85.10
2018-11-21T01:14:51.842Z,85.10
2018-11-21T01:17:20.316Z,85.40
2018-11-21T01:19:48.767Z,85.70
2018-11-21T01:22:17.260Z,85.70
2018-11-21T01:24:45.759Z,85.60
2018-11-21T01:27:14.230Z,85.70
2018-11-21T01:29:42.783Z,85.80
2018-11-21T01:32:11.236Z,85.90
2018-11-21T01:34:39.719Z,85.90
2018-11-21T01:37:08.280Z,85.90
2018-11-21T01:39:36.752Z,86.20
2018-11-21T01:42:05.355Z,86.20
2018-11-21T01:44:33.819Z,86.30
2018-11-21T01:47:02.333Z,86.30
2018-11-21T01:49:30.766Z,86.20
2018-11-21T01:51:59.632Z,86.20
2018-11-21T01:54:28.063Z,86.30
2018-11-21T01:56:57.005Z,86.30
2018-11-21T01:59:25.498Z,86.40
2018-11-21T02:01:55.193Z,86.30
2018-11-21T02:04:23.680Z,86.40
2018-11-21T02:06:52.154Z,86.50
2018-11-21T02:09:20.994Z,86.60
2018-11-21T02:11:49.411Z,86.70
2018-11-21T02:14:18.162Z,86.90
2018-11-21T02:16:46.891Z,87.00
2018-11-21T02:19:15.340Z,87.00
2018-11-21T02:21:43.780Z,86.90
2018-11-21T02:24:12.218Z,86.80
2018-11-21T02:26:40.704Z,86.70
2018-11-21T02:29:09.526Z,86.60
2018-11-21T02:31:37.965Z,86.40
2018-11-21T02:34:06.745Z,86.40
2018-11-21T02:36:35.209Z,86.40
2018-11-21T02:39:04.297Z,86.50
2018-11-21T02:41:32.982Z,86.50
2018-11-21T02:44:01.410Z,86.40
2018-11-21T02:46:29.834Z,86.30
2018-11-21T02:48:58.290Z,86.50
2018-11-21T02:51:26.750Z,86.60
2018-11-21T02:53:55.225Z,86.70
2018-11-21T02:57:01.059Z,86.90
2018-11-21T02:59:29.608Z,86.70
2018-11-21T03:01:58.072Z,86.70
2018-11-21T03:04:27.005Z,86.70
2018-11-21T03:06:55.522Z,86.40
2018-11-21T03:09:23.982Z,86.40
2018-11-21T03:11:52.478Z,86.40
2018-11-21T03:14:20.900Z,86.50
2018-11-21T03:16:49.377Z,86.50
2018-11-21T03:19:17.827Z,86.70
2018-11-21T03:21:46.272Z,86.60
2018-11-21T03:24:14.720Z,86.60
2018-11-21T03:26:43.190Z,86.80
2018-11-21T03:29:11.616Z,86.80
2018-11-21T03:31:40.216Z,86.70
2018-11-21T03:34:08.660Z,86.80
2018-11-21T03:36:37.085Z,86.90
2018-11-21T03:39:08.621Z,86.90
2018-11-21T03:41:37.914Z,87.30
2018-11-21T03:44:06.368Z,87.50
2018-11-21T03:46:34.872Z,87.50
2018-11-21T03:49:03.349Z,87.50
2018-11-21T03:51:32.117Z,87.40
2018-11-21T03:54:00.598Z,87.30
2018-11-21T03:56:29.324Z,87.50
2018-11-21T03:58:57.868Z,87.80
2018-11-21T04:01:26.366Z,87.90
2018-11-21T04:03:55.229Z,87.90
2018-11-21T04:06:23.859Z,87.90
2018-11-21T04:08:52.310Z,87.90
2018-11-21T04:11:20.767Z,88.10
2018-11-21T04:13:49.195Z,88.20
2018-11-21T04:16:17.867Z,88.40
2018-11-21T04:18:50.688Z,88.50
2018-11-21T04:21:19.097Z,88.20
2018-11-21T04:23:47.557Z,88.20
2018-11-21T04:26:16.816Z,88.40
2018-11-21T04:28:45.355Z,88.60
2018-11-21T04:31:14.600Z,88.50
2018-11-21T04:33:43.287Z,88.40
2018-11-21T04:36:12.529Z,88.20
2018-11-21T04:38:41.051Z,88.30
2018-11-21T04:41:09.543Z,88.30
2018-11-21T04:43:38.272Z,88.20
2018-11-21T04:46:07.100Z,88.30
2018-11-21T04:48:36.120Z,88.60
2018-11-21T04:51:04.812Z,88.70
2018-11-21T04:53:33.241Z,88.80
2018-11-21T04:56:01.680Z,88.60
2018-11-21T04:58:30.151Z,88.40
2018-11-21T05:00:58.603Z,88.80
2018-11-21T05:03:27.035Z,88.90
2018-11-21T05:05:55.466Z,88.60
2018-11-21T05:08:23.956Z,88.50
2018-11-21T05:10:52.769Z,88.20
2018-11-21T05:13:21.227Z,88.20
2018-11-21T05:15:49.869Z,88.10
2018-11-21T05:18:18.669Z,88.40
2018-11-21T05:20:47.162Z,88.30
2018-11-21T05:23:15.598Z,88.10
2018-11-21T05:25:44.445Z,87.90
2018-11-21T05:28:12.818Z,87.80
2018-11-21T05:30:41.362Z,87.60
2018-11-21T05:33:09.786Z,87.60
2018-11-21T05:35:38.213Z,87.60
2018-11-21T05:38:06.671Z,87.70
2018-11-21T05:40:35.656Z,87.60
2018-11-21T05:43:04.105Z,87.50
2018-11-21T05:45:32.792Z,87.50
2018-11-21T05:48:01.242Z,87.50
2018-11-21T05:50:29.667Z,87.80
2018-11-21T05:52:58.106Z,87.80
2018-11-21T05:55:26.521Z,87.70
2018-11-21T05:57:54.983Z,87.80
2018-11-21T06:00:23.413Z,87.70
2018-11-21T06:02:51.859Z,87.70
2018-11-21T06:05:20.281Z,87.70
2018-11-21T06:07:48.827Z,87.90
2018-11-21T06:10:17.264Z,88.00
2018-11-21T06:12:45.701Z,88.00
2018-11-21T06:15:14.150Z,88.00
2018-11-21T06:17:48.070Z,88.10
2018-11-21T06:20:12.901Z,88.10
2018-11-21T06:22:41.504Z,88.30
2018-11-21T06:25:11.172Z,88.30
2018-11-21T06:27:39.797Z,88.40
2018-11-21T06:30:09.853Z,88.60
2018-11-21T06:32:38.322Z,88.80
2018-11-21T06:35:07.729Z,88.80
2018-11-21T06:37:36.253Z,88.80
2018-11-21T06:40:06.066Z,88.70
2018-11-21T06:42:34.611Z,88.60
2018-11-21T06:45:03.508Z,88.40
2018-11-21T06:47:31.468Z,88.10
2018-11-21T06:49:59.916Z,88.00
2018-11-21T06:52:28.332Z,87.90
2018-11-21T06:54:56.779Z,87.70
2018-11-21T06:57:25.196Z,87.60
2018-11-21T06:59:53.757Z,87.60
2018-11-21T07:02:22.179Z,87.40
2018-11-21T07:04:50.600Z,87.50
2018-11-21T07:07:19.040Z,87.60
2018-11-21T07:09:47.503Z,88.00
2018-11-21T07:12:16.736Z,87.80
2018-11-21T07:14:45.152Z,87.70
2018-11-21T07:17:13.586Z,87.70
2018-11-21T07:19:42.021Z,87.90
2018-11-21T07:22:10.558Z,87.80
2018-11-21T07:24:38.968Z,87.80
2018-11-21T07:27:07.408Z,87.50
2018-11-21T07:29:35.851Z,87.20
2018-11-21T07:32:04.305Z,86.90
2018-11-21T07:34:32.745Z,86.80
2018-11-21T07:37:01.171Z,86.80
2018-11-21T07:39:29.623Z,86.70
2018-11-21T07:41:58.106Z,86.70
2018-11-21T07:44:26.530Z,86.60
2018-11-21T07:46:54.972Z,86.50
2018-11-21T07:49:23.405Z,86.40
2018-11-21T07:51:51.877Z,86.30
2018-11-21T07:54:20.293Z,86.50
2018-11-21T07:57:27.637Z,86.60
2018-11-21T08:01:02.156Z,86.70
2018-11-21T08:03:32.868Z,86.80
2018-11-21T08:06:23.359Z,86.80
2018-11-21T08:09:09.347Z,87.00
2018-11-21T08:12:02.452Z,87.10
2018-11-21T08:14:48.457Z,87.10
2018-11-21T08:17:39.124Z,87.20
2018-11-21T08:20:36.393Z,87.20
2018-11-21T08:23:26.932Z,87.10
2018-11-21T08:26:12.704Z,86.80
2018-11-21T08:28:41.133Z,86.50
2018-11-21T08:31:09.556Z,86.10
2018-11-21T08:33:38.043Z,85.70
2018-11-21T08:36:06.778Z,85.90
2018-11-21T08:38:35.234Z,86.10
2018-11-21T08:41:03.665Z,86.10
2018-11-21T08:43:32.389Z,85.90
2018-11-21T08:46:00.829Z,85.80
2018-11-21T08:48:29.252Z,85.60
2018-11-21T08:50:57.717Z,85.40
2018-11-21T08:53:26.153Z,85.20
2018-11-21T08:55:54.602Z,85.10
2018-11-21T08:58:23.025Z,85.10
2018-11-21T09:00:51.582Z,84.90
2018-11-21T09:03:20.008Z,84.60
2018-11-21T09:05:48.824Z,84.60
2018-11-21T09:08:17.278Z,84.70
2018-11-21T09:10:45.702Z,84.60
2018-11-21T09:13:14.161Z,84.60
2018-11-21T09:15:42.598Z,84.60
2018-11-21T09:18:11.078Z,84.80
2018-11-21T09:20:39.523Z,85.00
2018-11-21T09:23:07.969Z,85.20
2018-11-21T09:25:36.405Z,85.30
2018-11-21T09:28:04.832Z,85.20
2018-11-21T09:30:33.282Z,85.00
2018-11-21T09:33:01.875Z,85.20
2018-11-21T09:35:31.234Z,85.40
2018-11-21T09:37:59.665Z,85.60
2018-11-21T09:40:28.129Z,85.60
2018-11-21T09:42:56.943Z,85.60
2018-11-21T09:45:25.751Z,85.30
2018-11-21T09:47:54.577Z,85.10
2018-11-21T09:50:24.825Z,85.00
2018-11-21T09:52:53.285Z,85.00
2018-11-21T09:55:21.706Z,85.60
2018-11-21T09:57:50.343Z,84.70
2018-11-21T10:00:54.945Z,84.70
2018-11-21T10:03:25.847Z,84.60
2018-11-21T10:05:56.852Z,84.40
2018-11-21T10:08:41.308Z,84.40
2018-11-21T10:11:10.351Z,84.30
2018-11-21T10:13:38.784Z,84.50
2018-11-21T10:16:07.899Z,84.70
2018-11-21T10:18:37.464Z,84.90
2018-11-21T10:21:07.646Z,85.20
2018-11-21T10:23:36.068Z,85.30
2018-11-21T10:26:04.574Z,85.10
2018-11-21T10:28:33.381Z,85.10
2018-11-21T10:31:02.203Z,85.00
2018-11-21T10:33:30.766Z,84.70
2018-11-21T10:35:59.203Z,84.70
2018-11-21T10:38:27.627Z,84.90
2018-11-21T10:40:56.409Z,84.90
2018-11-21T10:43:28.399Z,85.10
2018-11-21T10:45:53.645Z,85.10
2018-11-21T10:48:22.132Z,84.80
2018-11-21T10:50:50.946Z,84.70
2018-11-21T10:53:19.362Z,84.80
2018-11-21T10:55:48.194Z,84.70
2018-11-21T10:58:16.626Z,84.50
2018-11-21T11:01:02.729Z,84.30
2018-11-21T11:03:33.766Z,84.20
2018-11-21T11:06:20.090Z,84.20
2018-11-21T11:09:13.395Z,84.10
2018-11-21T11:11:59.768Z,84.20
2018-11-21T11:14:47.357Z,84.30
2018-11-21T11:17:34.951Z,84.50
2018-11-21T11:20:21.185Z,84.70
2018-11-21T11:23:07.067Z,85.00
2018-11-21T11:25:53.286Z,85.10
2018-11-21T11:28:52.919Z,84.70
2018-11-21T11:31:45.738Z,84.60
2018-11-21T11:34:33.468Z,84.70
2018-11-21T11:37:30.148Z,84.50
2018-11-21T11:40:20.660Z,84.20
2018-11-21T11:43:23.424Z,84.00
2018-11-21T11:46:20.154Z,83.80
2018-11-21T11:49:19.410Z,83.40
2018-11-21T11:52:09.852Z,83.60
2018-11-21T11:54:48.921Z,84.10
2018-11-21T11:57:34.898Z,84.60
2018-11-21T12:00:22.464Z,85.10
2018-11-21T12:03:12.723Z,85.30
2018-11-21T12:06:18.419Z,85.30
2018-11-21T12:09:06.005Z,85.20
2018-11-21T12:11:55.977Z,84.80
2018-11-21T12:14:43.562Z,85.00
2018-11-21T12:17:29.679Z,85.10
2018-11-21T12:20:26.388Z,85.00
2018-11-21T12:23:19.650Z,84.80
2018-11-21T12:26:25.413Z,84.70
2018-11-21T12:29:18.827Z,84.90
2018-11-21T12:31:56.446Z,85.00
2018-11-21T12:34:52.705Z,84.80
2018-11-21T12:37:43.989Z,84.70
2018-11-21T12:40:30.369Z,84.80
2018-11-21T12:43:16.482Z,85.20
2018-11-21T12:45:56.667Z,85.40
2018-11-21T12:48:42.837Z,85.40
2018-11-21T12:51:48.276Z,85.20
2018-11-21T12:54:39.327Z,85.30
2018-11-21T12:57:25.480Z,85.10
2018-11-21T13:00:28.134Z,84.90
2018-11-21T13:03:14.461Z,84.70
2018-11-21T13:06:02.051Z,85.00
2018-11-21T13:08:58.128Z,85.00
2018-11-21T13:11:35.821Z,85.10
2018-11-21T13:14:37.062Z,85.10
2018-11-21T13:17:23.145Z,85.20
2018-11-21T13:20:19.760Z,85.30
2018-11-21T13:23:13.024Z,85.20
2018-11-21T13:25:58.902Z,85.00
2018-11-21T13:28:44.128Z,84.80
2018-11-21T13:31:30.313Z,84.60
2018-11-21T13:34:23.653Z,84.30
2018-11-21T13:37:01.721Z,84.20
2018-11-21T13:39:47.668Z,84.20
2018-11-21T13:42:50.432Z,84.40
2018-11-21T13:45:30.592Z,84.40
2018-11-21T13:48:18.045Z,84.80
2018-11-21T13:51:09.329Z,84.80
2018-11-21T13:54:02.678Z,84.60
2018-11-21T13:56:31.089Z,84.50
2018-11-21T13:58:59.509Z,84.30
2018-11-21T14:01:27.967Z,84.10
2018-11-21T14:03:56.395Z,84.20
2018-11-21T14:06:24.843Z,84.50
2018-11-21T14:08:53.268Z,84.70
2018-11-21T14:11:21.718Z,84.70
2018-11-21T14:13:50.134Z,84.80
2018-11-21T14:16:18.553Z,84.60
2018-11-21T14:18:47.104Z,84.20
2018-11-21T14:21:15.918Z,84.10
2018-11-21T14:23:44.375Z,84.10
2018-11-21T14:26:12.813Z,84.10
2018-11-21T14:28:41.329Z,84.10
2018-11-21T14:31:09.769Z,83.90
